sensor_id;sensor_type;location;lat;lon;timestamp;P1;durP1;ratioP1;P2;durP2;ratioP2
10596;SDS011;5346;48.766;8.674;2024-03-02T00:01:56;14.13;;;9.17;;
10596;SDS011;5346;48.766;8.674;2024-03-02T00:04:32;14.43;;;8.80;;
10596;SDS011;5346;48.766;8.674;2024-03-02T00:07:07;12.00;;;8.87;;
10596;SDS011;5346;48.766;8.674;2024-03-02T00:09:42;13.53;;;8.77;;
10596;SDS011;5346;48.766;8.674;2024-03-02T00:12:11;12.57;;;8.40;;
10596;SDS011;5346;48.766;8.674;2024-03-02T00:14:49;11.83;;;8.63;;
10596;SDS011;5346;48.766;8.674;2024-03-02T00:17:24;14.33;;;9.50;;
10596;SDS011;5346;48.766;8.674;2024-03-02T00:20:01;14.33;;;9.73;;
10596;SDS011;5346;48.766;8.674;2024-03-02T00:22:35;15.43;;;9.97;;
10596;SDS011;5346;48.766;8.674;2024-03-02T00:25:13;16.07;;;10.97;;
10596;SDS011;5346;48.766;8.674;2024-03-02T00:27:47;13.33;;;10.37;;
10596;SDS011;5346;48.766;8.674;2024-03-02T00:33:30;14.43;;;10.80;;
10596;SDS011;5346;48.766;8.674;2024-03-02T00:36:06;13.17;;;10.03;;
10596;SDS011;5346;48.766;8.674;2024-03-02T00:38:42;16.00;;;10.00;;
10596;SDS011;5346;48.766;8.674;2024-03-02T00:41:27;15.33;;;10.77;;
10596;SDS011;5346;48.766;8.674;2024-03-02T00:46:42;16.07;;;11.10;;
10596;SDS011;5346;48.766;8.674;2024-03-02T00:49:23;16.57;;;10.77;;
10596;SDS011;5346;48.766;8.674;2024-03-02T00:51:58;15.00;;;10.43;;
10596;SDS011;5346;48.766;8.674;2024-03-02T00:54:26;15.97;;;11.50;;
10596;SDS011;5346;48.766;8.674;2024-03-02T00:57:01;15.90;;;10.73;;
10596;SDS011;5346;48.766;8.674;2024-03-02T00:59:30;14.00;;;9.90;;
10596;SDS011;5346;48.766;8.674;2024-03-02T01:02:04;14.87;;;10.13;;
10596;SDS011;5346;48.766;8.674;2024-03-02T01:04:32;13.70;;;9.93;;
10596;SDS011;5346;48.766;8.674;2024-03-02T01:07:06;13.47;;;9.63;;
10596;SDS011;5346;48.766;8.674;2024-03-02T01:09:36;12.67;;;9.17;;
10596;SDS011;5346;48.766;8.674;2024-03-02T01:12:04;12.57;;;9.57;;
10596;SDS011;5346;48.766;8.674;2024-03-02T01:14:38;12.37;;;9.13;;
10596;SDS011;5346;48.766;8.674;2024-03-02T01:17:19;13.50;;;9.03;;
10596;SDS011;5346;48.766;8.674;2024-03-02T01:19:53;11.00;;;8.43;;
10596;SDS011;5346;48.766;8.674;2024-03-02T01:22:27;11.93;;;9.33;;
10596;SDS011;5346;48.766;8.674;2024-03-02T01:25:02;15.67;;;9.93;;
10596;SDS011;5346;48.766;8.674;2024-03-02T01:27:37;11.90;;;9.33;;
10596;SDS011;5346;48.766;8.674;2024-03-02T01:30:16;11.70;;;9.23;;
10596;SDS011;5346;48.766;8.674;2024-03-02T01:32:44;13.90;;;10.00;;
10596;SDS011;5346;48.766;8.674;2024-03-02T01:35:20;13.83;;;9.60;;
10596;SDS011;5346;48.766;8.674;2024-03-02T01:37:54;14.90;;;10.63;;
10596;SDS011;5346;48.766;8.674;2024-03-02T01:40:22;15.53;;;11.03;;
10596;SDS011;5346;48.766;8.674;2024-03-02T01:42:59;14.33;;;9.37;;
10596;SDS011;5346;48.766;8.674;2024-03-02T01:45:31;12.60;;;9.60;;
10596;SDS011;5346;48.766;8.674;2024-03-02T01:48:07;15.30;;;10.17;;
10596;SDS011;5346;48.766;8.674;2024-03-02T01:50:35;15.60;;;10.33;;
10596;SDS011;5346;48.766;8.674;2024-03-02T01:53:09;14.60;;;10.47;;
10596;SDS011;5346;48.766;8.674;2024-03-02T01:55:37;16.93;;;11.30;;
10596;SDS011;5346;48.766;8.674;2024-03-02T01:58:11;15.53;;;10.50;;
10596;SDS011;5346;48.766;8.674;2024-03-02T02:00:49;13.87;;;10.00;;
10596;SDS011;5346;48.766;8.674;2024-03-02T02:03:17;15.93;;;9.30;;
10596;SDS011;5346;48.766;8.674;2024-03-02T02:05:45;14.00;;;10.03;;
10596;SDS011;5346;48.766;8.674;2024-03-02T02:08:20;13.53;;;9.63;;
10596;SDS011;5346;48.766;8.674;2024-03-02T02:10:48;12.37;;;9.60;;
10596;SDS011;5346;48.766;8.674;2024-03-02T02:13:16;13.60;;;9.37;;
10596;SDS011;5346;48.766;8.674;2024-03-02T02:15:51;14.27;;;9.80;;
10596;SDS011;5346;48.766;8.674;2024-03-02T02:18:32;13.70;;;9.40;;
10596;SDS011;5346;48.766;8.674;2024-03-02T02:21:07;16.67;;;9.90;;
10596;SDS011;5346;48.766;8.674;2024-03-02T02:23:44;14.37;;;9.87;;
10596;SDS011;5346;48.766;8.674;2024-03-02T02:26:21;12.67;;;8.37;;
10596;SDS011;5346;48.766;8.674;2024-03-02T02:28:58;12.43;;;9.67;;
10596;SDS011;5346;48.766;8.674;2024-03-02T02:31:39;13.63;;;9.30;;
10596;SDS011;5346;48.766;8.674;2024-03-02T02:34:14;13.80;;;9.53;;
10596;SDS011;5346;48.766;8.674;2024-03-02T02:36:50;11.50;;;9.30;;
10596;SDS011;5346;48.766;8.674;2024-03-02T02:39:24;12.67;;;9.20;;
10596;SDS011;5346;48.766;8.674;2024-03-02T02:41:52;11.13;;;8.53;;
10596;SDS011;5346;48.766;8.674;2024-03-02T02:44:29;10.33;;;7.53;;
10596;SDS011;5346;48.766;8.674;2024-03-02T02:47:12;10.57;;;7.40;;
10596;SDS011;5346;48.766;8.674;2024-03-02T02:49:46;9.73;;;6.90;;
10596;SDS011;5346;48.766;8.674;2024-03-02T02:52:20;11.10;;;6.87;;
10596;SDS011;5346;48.766;8.674;2024-03-02T02:54:48;10.20;;;7.20;;
10596;SDS011;5346;48.766;8.674;2024-03-02T02:57:22;8.83;;;6.90;;
10596;SDS011;5346;48.766;8.674;2024-03-02T02:59:50;9.57;;;6.97;;
10596;SDS011;5346;48.766;8.674;2024-03-02T03:02:24;10.57;;;7.20;;
10596;SDS011;5346;48.766;8.674;2024-03-02T03:04:55;14.37;;;7.40;;
10596;SDS011;5346;48.766;8.674;2024-03-02T03:07:23;8.73;;;6.73;;
10596;SDS011;5346;48.766;8.674;2024-03-02T03:09:58;9.10;;;6.73;;
10596;SDS011;5346;48.766;8.674;2024-03-02T03:12:33;11.10;;;7.63;;
10596;SDS011;5346;48.766;8.674;2024-03-02T03:15:03;13.27;;;7.63;;
10596;SDS011;5346;48.766;8.674;2024-03-02T03:17:40;10.27;;;7.83;;
10596;SDS011;5346;48.766;8.674;2024-03-02T03:20:21;10.83;;;7.73;;
10596;SDS011;5346;48.766;8.674;2024-03-02T03:22:56;13.17;;;7.97;;
10596;SDS011;5346;48.766;8.674;2024-03-02T03:25:24;10.67;;;7.67;;
10596;SDS011;5346;48.766;8.674;2024-03-02T03:27:59;10.40;;;7.40;;
10596;SDS011;5346;48.766;8.674;2024-03-02T03:30:28;9.67;;;7.47;;
10596;SDS011;5346;48.766;8.674;2024-03-02T03:33:02;9.60;;;7.00;;
10596;SDS011;5346;48.766;8.674;2024-03-02T03:35:38;10.60;;;7.10;;
10596;SDS011;5346;48.766;8.674;2024-03-02T03:38:12;11.23;;;7.07;;
10596;SDS011;5346;48.766;8.674;2024-03-02T03:40:40;11.90;;;6.73;;
10596;SDS011;5346;48.766;8.674;2024-03-02T03:43:14;12.23;;;7.70;;
10596;SDS011;5346;48.766;8.674;2024-03-02T03:45:42;10.93;;;7.50;;
10596;SDS011;5346;48.766;8.674;2024-03-02T03:48:09;10.73;;;7.73;;
10596;SDS011;5346;48.766;8.674;2024-03-02T03:50:43;9.60;;;7.20;;
10596;SDS011;5346;48.766;8.674;2024-03-02T03:53:11;10.60;;;7.10;;
10596;SDS011;5346;48.766;8.674;2024-03-02T03:55:46;12.10;;;7.17;;
10596;SDS011;5346;48.766;8.674;2024-03-02T03:58:15;8.33;;;6.83;;
10596;SDS011;5346;48.766;8.674;2024-03-02T04:00:51;9.63;;;7.00;;
10596;SDS011;5346;48.766;8.674;2024-03-02T04:03:19;9.07;;;6.50;;
10596;SDS011;5346;48.766;8.674;2024-03-02T04:05:47;9.07;;;6.87;;
10596;SDS011;5346;48.766;8.674;2024-03-02T04:08:21;9.47;;;6.20;;
10596;SDS011;5346;48.766;8.674;2024-03-02T04:10:49;7.67;;;6.10;;
10596;SDS011;5346;48.766;8.674;2024-03-02T04:13:26;8.57;;;6.57;;
10596;SDS011;5346;48.766;8.674;2024-03-02T04:16:01;9.73;;;6.50;;
10596;SDS011;5346;48.766;8.674;2024-03-02T04:18:36;9.73;;;6.90;;
10596;SDS011;5346;48.766;8.674;2024-03-02T04:21:10;9.90;;;6.60;;
10596;SDS011;5346;48.766;8.674;2024-03-02T04:23:44;8.43;;;6.50;;
10596;SDS011;5346;48.766;8.674;2024-03-02T04:26:18;9.27;;;6.43;;
10596;SDS011;5346;48.766;8.674;2024-03-02T04:28:48;7.53;;;5.80;;
10596;SDS011;5346;48.766;8.674;2024-03-02T04:31:22;7.27;;;5.40;;
10596;SDS011;5346;48.766;8.674;2024-03-02T04:33:56;6.60;;;5.13;;
10596;SDS011;5346;48.766;8.674;2024-03-02T04:36:24;6.40;;;4.73;;
10596;SDS011;5346;48.766;8.674;2024-03-02T04:38:58;6.37;;;5.30;;
10596;SDS011;5346;48.766;8.674;2024-03-02T04:41:32;8.17;;;4.87;;
10596;SDS011;5346;48.766;8.674;2024-03-02T04:44:06;6.63;;;4.33;;
10596;SDS011;5346;48.766;8.674;2024-03-02T04:46:34;5.80;;;4.30;;
10596;SDS011;5346;48.766;8.674;2024-03-02T04:49:08;7.43;;;4.23;;
10596;SDS011;5346;48.766;8.674;2024-03-02T04:51:42;6.57;;;4.50;;
10596;SDS011;5346;48.766;8.674;2024-03-02T04:54:16;6.43;;;5.10;;
10596;SDS011;5346;48.766;8.674;2024-03-02T04:56:44;6.10;;;4.67;;
10596;SDS011;5346;48.766;8.674;2024-03-02T04:59:16;5.67;;;4.07;;
10596;SDS011;5346;48.766;8.674;2024-03-02T05:01:51;5.57;;;4.27;;
10596;SDS011;5346;48.766;8.674;2024-03-02T05:04:19;5.60;;;4.07;;
10596;SDS011;5346;48.766;8.674;2024-03-02T05:06:47;5.73;;;4.13;;
10596;SDS011;5346;48.766;8.674;2024-03-02T05:09:25;6.47;;;4.40;;
10596;SDS011;5346;48.766;8.674;2024-03-02T05:11:53;6.13;;;4.90;;
10596;SDS011;5346;48.766;8.674;2024-03-02T05:14:45;6.00;;;4.60;;
10596;SDS011;5346;48.766;8.674;2024-03-02T05:17:26;7.07;;;5.20;;
10596;SDS011;5346;48.766;8.674;2024-03-02T05:20:00;6.77;;;4.97;;
10596;SDS011;5346;48.766;8.674;2024-03-02T05:22:30;10.37;;;5.53;;
10596;SDS011;5346;48.766;8.674;2024-03-02T05:25:05;8.97;;;6.07;;
10596;SDS011;5346;48.766;8.674;2024-03-02T05:27:33;9.50;;;6.13;;
10596;SDS011;5346;48.766;8.674;2024-03-02T05:30:08;8.27;;;5.67;;
10596;SDS011;5346;48.766;8.674;2024-03-02T05:32:42;8.13;;;5.50;;
10596;SDS011;5346;48.766;8.674;2024-03-02T05:35:17;7.07;;;5.30;;
10596;SDS011;5346;48.766;8.674;2024-03-02T05:37:52;6.57;;;4.83;;
10596;SDS011;5346;48.766;8.674;2024-03-02T05:40:20;6.03;;;4.90;;
10596;SDS011;5346;48.766;8.674;2024-03-02T05:42:50;6.17;;;4.80;;
10596;SDS011;5346;48.766;8.674;2024-03-02T05:45:24;5.30;;;4.47;;
10596;SDS011;5346;48.766;8.674;2024-03-02T05:47:53;5.73;;;4.40;;
10596;SDS011;5346;48.766;8.674;2024-03-02T05:50:33;4.83;;;3.77;;
10596;SDS011;5346;48.766;8.674;2024-03-02T05:53:00;7.00;;;4.10;;
10596;SDS011;5346;48.766;8.674;2024-03-02T05:55:35;5.93;;;4.00;;
10596;SDS011;5346;48.766;8.674;2024-03-02T05:58:03;4.90;;;3.77;;
10596;SDS011;5346;48.766;8.674;2024-03-02T06:00:56;4.03;;;3.30;;
10596;SDS011;5346;48.766;8.674;2024-03-02T06:03:24;4.23;;;3.23;;
10596;SDS011;5346;48.766;8.674;2024-03-02T06:05:58;4.27;;;3.50;;
10596;SDS011;5346;48.766;8.674;2024-03-02T06:08:26;5.23;;;3.67;;
10596;SDS011;5346;48.766;8.674;2024-03-02T06:11:00;4.13;;;3.10;;
10596;SDS011;5346;48.766;8.674;2024-03-02T06:13:35;4.33;;;3.50;;
10596;SDS011;5346;48.766;8.674;2024-03-02T06:16:14;5.30;;;3.90;;
10596;SDS011;5346;48.766;8.674;2024-03-02T06:19:02;5.60;;;4.10;;
10596;SDS011;5346;48.766;8.674;2024-03-02T06:21:30;4.73;;;3.50;;
10596;SDS011;5346;48.766;8.674;2024-03-02T06:24:03;5.33;;;3.63;;
10596;SDS011;5346;48.766;8.674;2024-03-02T06:26:38;7.97;;;3.63;;
10596;SDS011;5346;48.766;8.674;2024-03-02T06:29:12;4.67;;;3.60;;
10596;SDS011;5346;48.766;8.674;2024-03-02T06:31:40;2.90;;;2.60;;
10596;SDS011;5346;48.766;8.674;2024-03-02T06:34:18;3.37;;;2.60;;
10596;SDS011;5346;48.766;8.674;2024-03-02T06:36:47;3.37;;;2.60;;
10596;SDS011;5346;48.766;8.674;2024-03-02T06:39:22;4.60;;;2.80;;
10596;SDS011;5346;48.766;8.674;2024-03-02T06:41:56;3.43;;;2.40;;
10596;SDS011;5346;48.766;8.674;2024-03-02T06:44:31;3.20;;;2.83;;
10596;SDS011;5346;48.766;8.674;2024-03-02T06:47:05;4.73;;;2.60;;
10596;SDS011;5346;48.766;8.674;2024-03-02T06:49:41;3.40;;;2.60;;
10596;SDS011;5346;48.766;8.674;2024-03-02T06:52:08;3.47;;;2.30;;
10596;SDS011;5346;48.766;8.674;2024-03-02T06:54:42;2.80;;;2.50;;
10596;SDS011;5346;48.766;8.674;2024-03-02T06:57:10;3.10;;;2.40;;
10596;SDS011;5346;48.766;8.674;2024-03-02T06:59:44;3.67;;;2.57;;
10596;SDS011;5346;48.766;8.674;2024-03-02T07:02:12;4.13;;;2.80;;
10596;SDS011;5346;48.766;8.674;2024-03-02T07:04:39;4.30;;;2.67;;
10596;SDS011;5346;48.766;8.674;2024-03-02T07:07:16;4.07;;;2.93;;
10596;SDS011;5346;48.766;8.674;2024-03-02T07:09:53;2.87;;;2.43;;
10596;SDS011;5346;48.766;8.674;2024-03-02T07:12:21;4.07;;;2.37;;
10596;SDS011;5346;48.766;8.674;2024-03-02T07:14:57;3.13;;;2.50;;
10596;SDS011;5346;48.766;8.674;2024-03-02T07:17:37;3.07;;;2.40;;
10596;SDS011;5346;48.766;8.674;2024-03-02T07:20:22;4.07;;;2.63;;
10596;SDS011;5346;48.766;8.674;2024-03-02T07:22:56;3.70;;;2.93;;
10596;SDS011;5346;48.766;8.674;2024-03-02T07:25:24;5.13;;;3.00;;
10596;SDS011;5346;48.766;8.674;2024-03-02T07:28:08;4.40;;;2.73;;
10596;SDS011;5346;48.766;8.674;2024-03-02T07:30:43;4.27;;;2.77;;
10596;SDS011;5346;48.766;8.674;2024-03-02T07:33:21;4.00;;;2.70;;
10596;SDS011;5346;48.766;8.674;2024-03-02T07:35:53;3.67;;;2.80;;
10596;SDS011;5346;48.766;8.674;2024-03-02T07:38:33;3.50;;;2.73;;
10596;SDS011;5346;48.766;8.674;2024-03-02T07:41:09;3.33;;;2.43;;
10596;SDS011;5346;48.766;8.674;2024-03-02T07:43:44;3.03;;;2.37;;
10596;SDS011;5346;48.766;8.674;2024-03-02T07:46:19;2.90;;;2.60;;
10596;SDS011;5346;48.766;8.674;2024-03-02T07:48:47;3.10;;;2.57;;
10596;SDS011;5346;48.766;8.674;2024-03-02T07:51:22;2.50;;;2.30;;
10596;SDS011;5346;48.766;8.674;2024-03-02T07:53:52;3.50;;;2.37;;
10596;SDS011;5346;48.766;8.674;2024-03-02T07:56:26;4.77;;;2.60;;
10596;SDS011;5346;48.766;8.674;2024-03-02T07:59:03;2.73;;;2.43;;
10596;SDS011;5346;48.766;8.674;2024-03-02T08:01:37;2.67;;;2.20;;
10596;SDS011;5346;48.766;8.674;2024-03-02T08:04:12;2.60;;;2.40;;
10596;SDS011;5346;48.766;8.674;2024-03-02T08:06:45;3.23;;;2.60;;
10596;SDS011;5346;48.766;8.674;2024-03-02T08:09:19;2.87;;;2.30;;
10596;SDS011;5346;48.766;8.674;2024-03-02T08:11:47;2.33;;;1.90;;
10596;SDS011;5346;48.766;8.674;2024-03-02T08:14:28;3.40;;;2.35;;
10596;SDS011;5346;48.766;8.674;2024-03-02T08:16:56;3.17;;;2.53;;
10596;SDS011;5346;48.766;8.674;2024-03-02T08:19:35;2.83;;;2.35;;
10596;SDS011;5346;48.766;8.674;2024-03-02T08:22:18;2.55;;;2.30;;
10596;SDS011;5346;48.766;8.674;2024-03-02T08:24:54;3.17;;;2.28;;
10596;SDS011;5346;48.766;8.674;2024-03-02T08:27:28;2.80;;;2.42;;
10596;SDS011;5346;48.766;8.674;2024-03-02T08:30:05;3.25;;;2.45;;
10596;SDS011;5346;48.766;8.674;2024-03-02T08:32:41;3.95;;;2.65;;
10596;SDS011;5346;48.766;8.674;2024-03-02T08:35:15;2.35;;;2.03;;
10596;SDS011;5346;48.766;8.674;2024-03-02T08:37:49;2.45;;;2.20;;
10596;SDS011;5346;48.766;8.674;2024-03-02T08:40:23;3.20;;;2.00;;
10596;SDS011;5346;48.766;8.674;2024-03-02T08:42:57;2.00;;;1.70;;
10596;SDS011;5346;48.766;8.674;2024-03-02T08:45:31;3.47;;;1.92;;
10596;SDS011;5346;48.766;8.674;2024-03-02T08:48:01;3.50;;;1.85;;
10596;SDS011;5346;48.766;8.674;2024-03-02T08:50:35;2.00;;;1.80;;
10596;SDS011;5346;48.766;8.674;2024-03-02T08:53:03;2.25;;;1.80;;
10596;SDS011;5346;48.766;8.674;2024-03-02T08:55:31;2.60;;;2.30;;
10596;SDS011;5346;48.766;8.674;2024-03-02T08:58:05;3.53;;;2.90;;
10596;SDS011;5346;48.766;8.674;2024-03-02T09:00:33;3.42;;;2.97;;
10596;SDS011;5346;48.766;8.674;2024-03-02T09:03:08;4.68;;;3.65;;
10596;SDS011;5346;48.766;8.674;2024-03-02T09:05:35;4.22;;;3.60;;
10596;SDS011;5346;48.766;8.674;2024-03-02T09:08:03;4.25;;;3.85;;
10596;SDS011;5346;48.766;8.674;2024-03-02T09:10:37;4.85;;;3.88;;
10596;SDS011;5346;48.766;8.674;2024-03-02T09:13:06;5.63;;;4.25;;
10596;SDS011;5346;48.766;8.674;2024-03-02T09:15:41;4.53;;;4.13;;
10596;SDS011;5346;48.766;8.674;2024-03-02T09:18:22;5.22;;;4.72;;
10596;SDS011;5346;48.766;8.674;2024-03-02T09:20:56;5.40;;;4.68;;
10596;SDS011;5346;48.766;8.674;2024-03-02T09:23:24;5.57;;;4.30;;
10596;SDS011;5346;48.766;8.674;2024-03-02T09:25:52;6.07;;;4.50;;
10596;SDS011;5346;48.766;8.674;2024-03-02T09:28:25;4.75;;;4.25;;
10596;SDS011;5346;48.766;8.674;2024-03-02T09:30:53;4.43;;;4.03;;
10596;SDS011;5346;48.766;8.674;2024-03-02T09:33:26;5.50;;;4.22;;
10596;SDS011;5346;48.766;8.674;2024-03-02T09:36:00;6.00;;;4.32;;
10596;SDS011;5346;48.766;8.674;2024-03-02T09:38:28;4.38;;;3.88;;
10596;SDS011;5346;48.766;8.674;2024-03-02T09:41:04;5.65;;;3.80;;
10596;SDS011;5346;48.766;8.674;2024-03-02T09:43:33;3.95;;;3.22;;
10596;SDS011;5346;48.766;8.674;2024-03-02T09:46:00;2.92;;;2.70;;
10596;SDS011;5346;48.766;8.674;2024-03-02T09:48:35;4.15;;;3.35;;
10596;SDS011;5346;48.766;8.674;2024-03-02T09:51:04;6.32;;;3.20;;
10596;SDS011;5346;48.766;8.674;2024-03-02T09:53:38;5.70;;;2.95;;
10596;SDS011;5346;48.766;8.674;2024-03-02T09:56:06;3.72;;;2.60;;
10596;SDS011;5346;48.766;8.674;2024-03-02T09:58:40;5.25;;;2.50;;
10596;SDS011;5346;48.766;8.674;2024-03-02T10:01:16;3.15;;;2.53;;
10596;SDS011;5346;48.766;8.674;2024-03-02T10:03:44;2.83;;;2.45;;
10596;SDS011;5346;48.766;8.674;2024-03-02T10:06:26;4.22;;;2.78;;
10596;SDS011;5346;48.766;8.674;2024-03-02T10:08:55;2.78;;;2.20;;
10596;SDS011;5346;48.766;8.674;2024-03-02T10:11:30;2.90;;;2.60;;
10596;SDS011;5346;48.766;8.674;2024-03-02T10:14:09;2.55;;;2.08;;
10596;SDS011;5346;48.766;8.674;2024-03-02T10:16:44;4.22;;;2.35;;
10596;SDS011;5346;48.766;8.674;2024-03-02T10:19:23;3.28;;;2.88;;
10596;SDS011;5346;48.766;8.674;2024-03-02T10:22:10;5.55;;;3.60;;
10596;SDS011;5346;48.766;8.674;2024-03-02T10:24:44;5.30;;;3.60;;
10596;SDS011;5346;48.766;8.674;2024-03-02T10:27:16;4.45;;;4.03;;
10596;SDS011;5346;48.766;8.674;2024-03-02T10:29:55;4.50;;;3.90;;
10596;SDS011;5346;48.766;8.674;2024-03-02T10:32:23;6.85;;;4.55;;
10596;SDS011;5346;48.766;8.674;2024-03-02T10:34:57;4.80;;;4.30;;
10596;SDS011;5346;48.766;8.674;2024-03-02T10:37:26;4.43;;;3.85;;
10596;SDS011;5346;48.766;8.674;2024-03-02T10:40:05;5.90;;;4.30;;
10596;SDS011;5346;48.766;8.674;2024-03-02T10:42:34;9.18;;;4.13;;
10596;SDS011;5346;48.766;8.674;2024-03-02T10:45:10;4.25;;;3.80;;
10596;SDS011;5346;48.766;8.674;2024-03-02T10:47:40;4.75;;;4.25;;
10596;SDS011;5346;48.766;8.674;2024-03-02T10:50:19;5.20;;;4.45;;
10596;SDS011;5346;48.766;8.674;2024-03-02T10:52:47;5.00;;;4.32;;
10596;SDS011;5346;48.766;8.674;2024-03-02T10:55:21;5.53;;;4.43;;
10596;SDS011;5346;48.766;8.674;2024-03-02T10:57:53;6.57;;;4.00;;
10596;SDS011;5346;48.766;8.674;2024-03-02T11:00:31;4.80;;;4.30;;
10596;SDS011;5346;48.766;8.674;2024-03-02T11:03:07;3.80;;;3.40;;
10596;SDS011;5346;48.766;8.674;2024-03-02T11:05:44;3.40;;;3.10;;
10596;SDS011;5346;48.766;8.674;2024-03-02T11:08:19;4.10;;;3.30;;
10596;SDS011;5346;48.766;8.674;2024-03-02T11:10:54;3.63;;;2.95;;
10596;SDS011;5346;48.766;8.674;2024-03-02T11:13:35;4.05;;;3.13;;
10596;SDS011;5346;48.766;8.674;2024-03-02T11:16:31;3.05;;;2.72;;
10596;SDS011;5346;48.766;8.674;2024-03-02T11:19:16;3.05;;;2.75;;
10596;SDS011;5346;48.766;8.674;2024-03-02T11:21:51;3.25;;;2.90;;
10596;SDS011;5346;48.766;8.674;2024-03-02T11:27:00;4.75;;;2.17;;
10596;SDS011;5346;48.766;8.674;2024-03-02T11:29:46;3.17;;;2.40;;
10596;SDS011;5346;48.766;8.674;2024-03-02T11:32:21;2.47;;;2.17;;
10596;SDS011;5346;48.766;8.674;2024-03-02T11:34:56;2.78;;;2.30;;
10596;SDS011;5346;48.766;8.674;2024-03-02T11:37:30;3.00;;;2.10;;
10596;SDS011;5346;48.766;8.674;2024-03-02T11:39:58;2.63;;;2.42;;
10596;SDS011;5346;48.766;8.674;2024-03-02T11:42:32;2.80;;;2.60;;
10596;SDS011;5346;48.766;8.674;2024-03-02T11:45:08;2.65;;;2.45;;
10596;SDS011;5346;48.766;8.674;2024-03-02T11:47:49;3.03;;;2.70;;
10596;SDS011;5346;48.766;8.674;2024-03-02T11:50:34;3.10;;;2.80;;
10596;SDS011;5346;48.766;8.674;2024-03-02T11:53:16;4.43;;;2.90;;
10596;SDS011;5346;48.766;8.674;2024-03-02T11:55:47;3.30;;;2.70;;
10596;SDS011;5346;48.766;8.674;2024-03-02T11:58:16;2.70;;;2.50;;
10596;SDS011;5346;48.766;8.674;2024-03-02T12:00:54;3.00;;;2.70;;
10596;SDS011;5346;48.766;8.674;2024-03-02T12:03:29;2.83;;;2.42;;
10596;SDS011;5346;48.766;8.674;2024-03-02T12:06:08;2.70;;;2.33;;
10596;SDS011;5346;48.766;8.674;2024-03-02T12:08:42;3.17;;;2.80;;
10596;SDS011;5346;48.766;8.674;2024-03-02T12:11:16;3.88;;;2.45;;
10596;SDS011;5346;48.766;8.674;2024-03-02T12:13:53;3.40;;;2.78;;
10596;SDS011;5346;48.766;8.674;2024-03-02T12:16:35;3.65;;;2.30;;
10596;SDS011;5346;48.766;8.674;2024-03-02T12:19:11;3.10;;;2.78;;
10596;SDS011;5346;48.766;8.674;2024-03-02T12:21:53;4.00;;;2.17;;
10596;SDS011;5346;48.766;8.674;2024-03-02T12:24:21;3.22;;;2.30;;
10596;SDS011;5346;48.766;8.674;2024-03-02T12:26:56;2.83;;;2.30;;
10596;SDS011;5346;48.766;8.674;2024-03-02T12:29:25;2.63;;;2.38;;
10596;SDS011;5346;48.766;8.674;2024-03-02T12:31:59;3.00;;;2.50;;
10596;SDS011;5346;48.766;8.674;2024-03-02T12:34:30;2.95;;;2.60;;
10596;SDS011;5346;48.766;8.674;2024-03-02T12:37:04;4.82;;;2.08;;
10596;SDS011;5346;48.766;8.674;2024-03-02T12:39:38;4.05;;;2.22;;
10596;SDS011;5346;48.766;8.674;2024-03-02T12:42:12;8.13;;;2.58;;
10596;SDS011;5346;48.766;8.674;2024-03-02T12:44:40;3.00;;;2.58;;
10596;SDS011;5346;48.766;8.674;2024-03-02T12:47:14;2.47;;;2.28;;
10596;SDS011;5346;48.766;8.674;2024-03-02T12:49:49;2.60;;;2.28;;
10596;SDS011;5346;48.766;8.674;2024-03-02T12:52:25;3.15;;;2.30;;
10596;SDS011;5346;48.766;8.674;2024-03-02T12:54:56;4.38;;;2.70;;
10596;SDS011;5346;48.766;8.674;2024-03-02T12:57:25;2.92;;;2.30;;
10596;SDS011;5346;48.766;8.674;2024-03-02T13:00:02;3.75;;;1.98;;
10596;SDS011;5346;48.766;8.674;2024-03-02T13:02:42;2.88;;;2.20;;
10596;SDS011;5346;48.766;8.674;2024-03-02T13:05:15;2.63;;;2.28;;
10596;SDS011;5346;48.766;8.674;2024-03-02T13:07:43;2.10;;;1.90;;
10596;SDS011;5346;48.766;8.674;2024-03-02T13:10:19;2.30;;;2.10;;
10596;SDS011;5346;48.766;8.674;2024-03-02T13:12:55;3.10;;;2.40;;
10596;SDS011;5346;48.766;8.674;2024-03-02T13:15:45;2.30;;;2.10;;
10596;SDS011;5346;48.766;8.674;2024-03-02T13:18:19;2.53;;;2.22;;
10596;SDS011;5346;48.766;8.674;2024-03-02T13:20:55;4.40;;;2.00;;
10596;SDS011;5346;48.766;8.674;2024-03-02T13:23:29;2.50;;;2.30;;
10596;SDS011;5346;48.766;8.674;2024-03-02T13:25:57;4.38;;;2.05;;
10596;SDS011;5346;48.766;8.674;2024-03-02T13:28:31;2.38;;;2.10;;
10596;SDS011;5346;48.766;8.674;2024-03-02T13:31:06;2.63;;;2.00;;
10596;SDS011;5346;48.766;8.674;2024-03-02T13:33:34;2.35;;;2.05;;
10596;SDS011;5346;48.766;8.674;2024-03-02T13:36:08;4.53;;;2.20;;
10596;SDS011;5346;48.766;8.674;2024-03-02T13:38:42;2.70;;;2.03;;
10596;SDS011;5346;48.766;8.674;2024-03-02T13:41:16;2.15;;;1.80;;
10596;SDS011;5346;48.766;8.674;2024-03-02T13:43:50;3.25;;;1.95;;
10596;SDS011;5346;48.766;8.674;2024-03-02T13:46:24;2.42;;;1.70;;
10596;SDS011;5346;48.766;8.674;2024-03-02T13:48:58;3.05;;;1.83;;
10596;SDS011;5346;48.766;8.674;2024-03-02T13:51:26;2.67;;;2.22;;
10596;SDS011;5346;48.766;8.674;2024-03-02T13:54:00;2.20;;;2.00;;
10596;SDS011;5346;48.766;8.674;2024-03-02T13:56:29;4.75;;;1.90;;
10596;SDS011;5346;48.766;8.674;2024-03-02T13:59:04;2.35;;;1.88;;
10596;SDS011;5346;48.766;8.674;2024-03-02T14:01:38;2.15;;;1.70;;
10596;SDS011;5346;48.766;8.674;2024-03-02T14:04:14;1.50;;;1.40;;
10596;SDS011;5346;48.766;8.674;2024-03-02T14:06:42;3.33;;;1.73;;
10596;SDS011;5346;48.766;8.674;2024-03-02T14:09:16;1.88;;;1.63;;
10596;SDS011;5346;48.766;8.674;2024-03-02T14:11:49;2.35;;;1.80;;
10596;SDS011;5346;48.766;8.674;2024-03-02T14:14:26;1.95;;;1.75;;
10596;SDS011;5346;48.766;8.674;2024-03-02T14:17:07;2.50;;;2.10;;
10596;SDS011;5346;48.766;8.674;2024-03-02T14:19:48;2.60;;;1.83;;
10596;SDS011;5346;48.766;8.674;2024-03-02T14:22:22;3.28;;;2.00;;
10596;SDS011;5346;48.766;8.674;2024-03-02T14:24:56;2.65;;;2.00;;
10596;SDS011;5346;48.766;8.674;2024-03-02T14:27:30;2.30;;;1.80;;
10596;SDS011;5346;48.766;8.674;2024-03-02T14:30:18;3.03;;;2.00;;
10596;SDS011;5346;48.766;8.674;2024-03-02T14:32:53;3.45;;;1.95;;
10596;SDS011;5346;48.766;8.674;2024-03-02T14:35:26;2.80;;;2.08;;
10596;SDS011;5346;48.766;8.674;2024-03-02T14:37:55;2.17;;;1.80;;
10596;SDS011;5346;48.766;8.674;2024-03-02T14:40:30;2.53;;;1.92;;
10596;SDS011;5346;48.766;8.674;2024-03-02T14:42:58;2.67;;;1.85;;
10596;SDS011;5346;48.766;8.674;2024-03-02T14:45:32;2.25;;;1.70;;
10596;SDS011;5346;48.766;8.674;2024-03-02T14:48:00;1.60;;;1.50;;
10596;SDS011;5346;48.766;8.674;2024-03-02T14:50:34;3.33;;;1.90;;
10596;SDS011;5346;48.766;8.674;2024-03-02T14:53:02;3.33;;;1.73;;
10596;SDS011;5346;48.766;8.674;2024-03-02T14:55:39;1.73;;;1.60;;
10596;SDS011;5346;48.766;8.674;2024-03-02T14:58:13;2.25;;;1.50;;
10596;SDS011;5346;48.766;8.674;2024-03-02T15:00:48;1.83;;;1.48;;
10596;SDS011;5346;48.766;8.674;2024-03-02T15:03:17;3.63;;;1.70;;
10596;SDS011;5346;48.766;8.674;2024-03-02T15:05:51;1.60;;;1.48;;
10596;SDS011;5346;48.766;8.674;2024-03-02T15:08:27;3.95;;;1.60;;
10596;SDS011;5346;48.766;8.674;2024-03-02T15:11:00;4.05;;;2.38;;
10596;SDS011;5346;48.766;8.674;2024-03-02T15:13:36;3.03;;;1.75;;
10596;SDS011;5346;48.766;8.674;2024-03-02T15:16:10;3.20;;;1.83;;
10596;SDS011;5346;48.766;8.674;2024-03-02T15:18:51;2.70;;;1.70;;
10596;SDS011;5346;48.766;8.674;2024-03-02T15:21:18;1.50;;;1.35;;
10596;SDS011;5346;48.766;8.674;2024-03-02T15:23:52;1.65;;;1.50;;
10596;SDS011;5346;48.766;8.674;2024-03-02T15:26:26;2.08;;;1.42;;
10596;SDS011;5346;48.766;8.674;2024-03-02T15:29:00;1.50;;;1.40;;
10596;SDS011;5346;48.766;8.674;2024-03-02T15:31:34;1.60;;;1.48;;
10596;SDS011;5346;48.766;8.674;2024-03-02T15:34:02;1.65;;;1.50;;
10596;SDS011;5346;48.766;8.674;2024-03-02T15:36:30;1.70;;;1.40;;
10596;SDS011;5346;48.766;8.674;2024-03-02T15:39:04;1.40;;;1.30;;
10596;SDS011;5346;48.766;8.674;2024-03-02T15:41:43;3.25;;;1.40;;
10596;SDS011;5346;48.766;8.674;2024-03-02T15:44:19;2.53;;;1.40;;
10596;SDS011;5346;48.766;8.674;2024-03-02T15:46:57;3.72;;;1.20;;